Accueil
METAR-TAF:

METAR-TAF

Aéroports :

Millington-Memphis Airport

Millington, Tennessee, États-Unis

latitude: 35-21-24N, longitude: 089-52-13W, altitude: 98 m

Observation

Le bulletin a été fait il y a 15 minutes, à 16:50 UTC
Vent 4 kt de ouest
Température 5°C
Humidité 56%
Pression 1026 hPa
Visibilité: 16.1 km
Ciel couvert à une hauteur de 7500 ft

METAR: KNQA 141650Z 27004KT 10SM OVC075 05/M03 A3029

Heure: 11:05 (17:05 UTC)


TAF: absent

Observations et prévisions météorologiques de plus de 4000 aéroports (messages METAR et TAF).

Les stations disponibles sont représentées par des disques jaunes et rouges sur la carte.

Passer la souris dessus pour voir le nom de la station.

Cliquer dessus pour voir les observations et prévisions météorologiques.

Pour changer de carte: cliquez sur les boutons verts avec une croix noire pour zoomer, sur le bouton vert avec un tiret pour effectuer un zoom arrière, ou sur les flèches vertes pour les cartes adjacentes.


METAR-TAF: